createdAt,value
2023-07-25T00:00:15.775Z,14.78
2023-07-25T00:01:15.811Z,14.74
2023-07-25T00:02:15.790Z,14.71
2023-07-25T00:03:15.783Z,14.67
2023-07-25T00:04:15.749Z,14.69
2023-07-25T00:05:15.696Z,14.63
2023-07-25T00:06:15.692Z,14.59
2023-07-25T00:07:15.718Z,14.57
2023-07-25T00:08:15.663Z,14.57
2023-07-25T00:09:15.670Z,14.54
2023-07-25T00:10:15.646Z,14.53
2023-07-25T00:11:15.694Z,14.48
2023-07-25T00:12:15.649Z,14.46
2023-07-25T00:13:15.624Z,14.45
2023-07-25T00:14:15.601Z,14.45
2023-07-25T00:15:15.621Z,14.42
2023-07-25T00:16:15.635Z,14.44
2023-07-25T00:17:15.559Z,14.39
2023-07-25T00:18:15.545Z,14.39
2023-07-25T00:19:15.531Z,14.38
2023-07-25T00:20:15.530Z,14.34
2023-07-25T00:21:15.558Z,14.30
2023-07-25T00:22:15.498Z,14.27
2023-07-25T00:23:15.465Z,14.23
2023-07-25T00:24:15.608Z,14.23
2023-07-25T00:25:15.504Z,14.19
2023-07-25T00:26:15.465Z,14.21
2023-07-25T00:27:15.407Z,14.17
2023-07-25T00:28:15.409Z,14.16
2023-07-25T00:29:15.390Z,14.13
2023-07-25T00:30:15.433Z,14.11
2023-07-25T00:31:15.359Z,14.12
2023-07-25T00:32:15.395Z,14.13
2023-07-25T00:33:15.343Z,14.13
2023-07-25T00:34:15.322Z,14.12
2023-07-25T00:35:15.382Z,14.16
2023-07-25T00:36:15.297Z,14.13
2023-07-25T00:37:15.286Z,14.12
2023-07-25T00:38:15.268Z,14.12
2023-07-25T00:39:15.300Z,14.13
2023-07-25T00:40:15.267Z,14.12
2023-07-25T00:41:15.246Z,14.13
2023-07-25T00:42:15.246Z,14.16
2023-07-25T00:43:15.209Z,14.16
2023-07-25T00:44:15.223Z,14.17
2023-07-25T00:45:15.178Z,14.17
2023-07-25T00:46:15.198Z,14.19
2023-07-25T00:47:15.149Z,14.20
2023-07-25T00:48:15.150Z,14.16
2023-07-25T00:49:15.929Z,14.19
2023-07-25T00:50:15.141Z,14.17
2023-07-25T00:51:15.108Z,14.16
2023-07-25T00:52:15.090Z,14.17
2023-07-25T00:53:15.121Z,14.19
2023-07-25T00:54:15.076Z,14.20
2023-07-25T00:55:15.080Z,14.21
2023-07-25T00:56:15.193Z,14.20
2023-07-25T00:57:15.019Z,14.23
2023-07-25T00:58:15.122Z,14.20
2023-07-25T00:59:14.998Z,14.19
2023-07-25T01:00:14.976Z,14.17
2023-07-25T01:01:15.005Z,14.13
2023-07-25T01:02:14.974Z,14.16
2023-07-25T01:03:15.086Z,14.13
2023-07-25T01:04:14.923Z,14.13
2023-07-25T01:05:14.915Z,14.11
2023-07-25T01:06:14.928Z,14.11
2023-07-25T01:07:14.942Z,14.16
2023-07-25T01:08:14.899Z,14.12
2023-07-25T01:09:14.858Z,14.12
2023-07-25T01:10:14.844Z,14.11
2023-07-25T01:11:14.846Z,14.12
2023-07-25T01:12:14.845Z,14.12
2023-07-25T01:13:14.809Z,14.09
2023-07-25T01:14:14.797Z,14.06
2023-07-25T01:15:14.790Z,14.08
2023-07-25T01:16:14.770Z,14.08
2023-07-25T01:17:14.787Z,14.08
2023-07-25T01:18:14.753Z,14.11
2023-07-25T01:19:14.733Z,14.08
2023-07-25T01:20:14.718Z,14.06
2023-07-25T01:21:14.736Z,14.05
2023-07-25T01:22:14.732Z,14.04
2023-07-25T01:23:14.677Z,14.11
2023-07-25T01:24:14.683Z,14.06
2023-07-25T01:25:14.650Z,14.09
2023-07-25T01:26:14.973Z,14.08
2023-07-25T01:27:14.653Z,14.05
2023-07-25T01:28:14.620Z,14.08
2023-07-25T01:29:14.590Z,14.06
2023-07-25T01:30:14.578Z,14.08
2023-07-25T01:31:14.688Z,14.08
2023-07-25T01:32:14.552Z,14.08
2023-07-25T01:33:14.545Z,14.08
2023-07-25T01:34:14.563Z,14.06
2023-07-25T01:35:14.571Z,14.11
2023-07-25T01:36:14.531Z,14.08
2023-07-25T01:37:14.494Z,14.08
2023-07-25T01:38:14.485Z,14.08
2023-07-25T01:39:14.483Z,14.06
2023-07-25T01:40:14.501Z,14.04
2023-07-25T01:41:14.453Z,14.06
2023-07-25T01:42:14.425Z,14.04
2023-07-25T01:43:14.446Z,14.02
2023-07-25T01:44:14.485Z,14.01
2023-07-25T01:45:14.412Z,13.98
2023-07-25T01:46:14.392Z,13.99
2023-07-25T01:47:14.361Z,14.01
2023-07-25T01:48:14.353Z,14.01
2023-07-25T01:49:14.399Z,13.96
2023-07-25T01:50:14.326Z,13.98
2023-07-25T01:51:14.299Z,13.94
2023-07-25T01:52:14.290Z,13.96
2023-07-25T01:53:14.308Z,13.94
2023-07-25T01:54:14.293Z,13.98
2023-07-25T01:55:14.256Z,13.94
2023-07-25T01:56:14.235Z,13.96
2023-07-25T01:57:14.245Z,13.98
2023-07-25T01:58:14.228Z,13.94
2023-07-25T01:59:14.220Z,13.94
2023-07-25T02:00:14.180Z,13.96
2023-07-25T02:01:14.190Z,13.96
2023-07-25T02:02:14.179Z,13.94
2023-07-25T02:03:14.265Z,13.98
2023-07-25T02:04:14.138Z,13.99
2023-07-25T02:05:14.125Z,13.98
2023-07-25T02:06:14.101Z,13.94
2023-07-25T02:07:14.108Z,13.94
2023-07-25T02:08:14.107Z,13.96
2023-07-25T02:09:14.091Z,13.98
2023-07-25T02:10:14.046Z,13.98
2023-07-25T02:11:14.069Z,14.01
2023-07-25T02:12:14.053Z,13.98
2023-07-25T02:13:14.048Z,13.98
2023-07-25T02:14:14.020Z,13.99
2023-07-25T02:15:13.996Z,14.01
2023-07-25T02:16:13.984Z,14.04
2023-07-25T02:17:13.989Z,14.02
2023-07-25T02:18:13.962Z,14.05
2023-07-25T02:19:13.932Z,14.04
2023-07-25T02:20:13.932Z,14.05
2023-07-25T02:21:13.920Z,14.04
2023-07-25T02:22:13.933Z,14.06
2023-07-25T02:23:13.867Z,14.05
2023-07-25T02:24:13.871Z,14.05
2023-07-25T02:25:13.861Z,14.06
2023-07-25T02:26:13.877Z,14.04
2023-07-25T02:27:13.893Z,14.05
2023-07-25T02:28:13.801Z,14.06
2023-07-25T02:29:13.837Z,14.04
2023-07-25T02:30:13.795Z,14.02
2023-07-25T02:31:13.912Z,14.04
2023-07-25T02:32:13.758Z,14.06
2023-07-25T02:33:13.748Z,14.08
2023-07-25T02:34:13.742Z,14.08
2023-07-25T02:35:13.723Z,14.08
2023-07-25T02:36:13.743Z,14.11
2023-07-25T02:37:13.730Z,14.08
2023-07-25T02:38:13.702Z,14.09
2023-07-25T02:39:13.681Z,14.08
2023-07-25T02:40:13.699Z,14.05
2023-07-25T02:41:13.663Z,14.11
2023-07-25T02:42:13.629Z,14.08
2023-07-25T02:43:13.618Z,14.06
2023-07-25T02:44:13.616Z,14.02
2023-07-25T02:45:13.628Z,14.01
2023-07-25T02:46:13.627Z,14.01
2023-07-25T02:47:13.566Z,14.01
2023-07-25T02:48:13.559Z,13.99
2023-07-25T02:49:13.537Z,13.98
2023-07-25T02:50:13.561Z,13.99
2023-07-25T02:51:13.684Z,14.01
2023-07-25T02:52:13.515Z,13.99
2023-07-25T02:53:13.497Z,13.99
2023-07-25T02:54:13.496Z,14.01
2023-07-25T02:55:13.460Z,13.98
2023-07-25T02:56:13.461Z,13.99
2023-07-25T02:57:13.429Z,13.99
2023-07-25T02:58:13.422Z,13.94
2023-07-25T02:59:13.487Z,13.96
2023-07-25T03:00:13.340Z,13.96
2023-07-25T03:01:13.419Z,13.93
2023-07-25T03:02:13.430Z,13.90
2023-07-25T03:03:13.437Z,13.90
2023-07-25T03:04:13.376Z,13.87
2023-07-25T03:05:13.295Z,13.88
2023-07-25T03:06:13.270Z,13.88
2023-07-25T03:07:13.239Z,13.84
2023-07-25T03:08:13.283Z,13.84
2023-07-25T03:09:13.282Z,13.83
2023-07-25T03:10:13.199Z,13.81
2023-07-25T03:11:13.217Z,13.84
2023-07-25T03:12:13.246Z,13.87
2023-07-25T03:13:13.242Z,13.86
2023-07-25T03:14:13.222Z,13.88
2023-07-25T03:15:13.206Z,13.86
2023-07-25T03:16:13.276Z,13.84
2023-07-25T03:17:13.170Z,13.88
2023-07-25T03:18:13.176Z,13.84
2023-07-25T03:19:13.089Z,13.84
2023-07-25T03:20:13.094Z,13.84
2023-07-25T03:21:13.046Z,13.86
2023-07-25T03:22:13.082Z,13.84
2023-07-25T03:23:13.032Z,13.83
2023-07-25T03:24:13.135Z,13.84
2023-07-25T03:25:13.018Z,13.83
2023-07-25T03:26:13.033Z,13.86
2023-07-25T03:27:13.008Z,13.84
2023-07-25T03:28:12.976Z,13.83
2023-07-25T03:29:12.958Z,13.81
2023-07-25T03:30:12.951Z,13.83
2023-07-25T03:31:12.962Z,13.87
2023-07-25T03:32:12.980Z,13.84
2023-07-25T03:33:12.903Z,13.83
2023-07-25T03:34:12.901Z,13.84
2023-07-25T03:35:12.883Z,13.84
2023-07-25T03:36:13.037Z,13.84
2023-07-25T03:37:12.852Z,13.84
2023-07-25T03:38:12.855Z,13.87
2023-07-25T03:39:12.826Z,13.86
2023-07-25T03:40:12.813Z,13.88
2023-07-25T03:41:12.821Z,13.88
2023-07-25T03:42:12.790Z,13.86
2023-07-25T03:43:12.782Z,13.88
2023-07-25T03:44:12.777Z,13.87
2023-07-25T03:45:12.810Z,13.86
2023-07-25T03:46:12.854Z,13.81
2023-07-25T03:47:12.718Z,13.84
2023-07-25T03:48:12.703Z,13.81
2023-07-25T03:49:12.712Z,13.81
2023-07-25T03:50:12.733Z,13.80
2023-07-25T03:51:12.683Z,13.84
2023-07-25T03:52:12.667Z,13.83
2023-07-25T03:53:12.640Z,13.84
2023-07-25T03:54:12.633Z,13.86
2023-07-25T03:55:12.653Z,13.90
2023-07-25T03:56:12.669Z,13.87
2023-07-25T03:57:12.613Z,13.86
2023-07-25T03:58:12.596Z,13.86
2023-07-25T03:59:12.689Z,13.86
2023-07-25T04:00:12.621Z,13.84
2023-07-25T04:01:12.556Z,13.87
2023-07-25T04:02:12.545Z,13.86
2023-07-25T04:03:15.514Z,13.86
2023-07-25T04:04:12.590Z,13.83
2023-07-25T04:05:12.544Z,13.86
2023-07-25T04:06:12.472Z,13.83
2023-07-25T04:07:12.447Z,13.84
2023-07-25T04:08:12.464Z,13.80
2023-07-25T04:09:12.456Z,13.81
2023-07-25T04:10:12.428Z,13.79
2023-07-25T04:11:12.393Z,13.79
2023-07-25T04:12:12.398Z,13.83
2023-07-25T04:13:12.404Z,13.80
2023-07-25T04:14:12.407Z,13.76
2023-07-25T04:15:12.365Z,13.73
2023-07-25T04:16:12.389Z,13.73
2023-07-25T04:17:12.328Z,13.75
2023-07-25T04:18:12.382Z,13.73
2023-07-25T04:19:12.306Z,13.73
2023-07-25T04:20:12.291Z,13.73
2023-07-25T04:21:12.263Z,13.72
2023-07-25T04:22:12.297Z,13.76
2023-07-25T04:23:12.292Z,13.73
2023-07-25T04:24:12.235Z,13.79
2023-07-25T04:25:12.216Z,13.73
2023-07-25T04:26:12.215Z,13.76
2023-07-25T04:27:12.181Z,13.72
2023-07-25T04:28:12.222Z,13.73
2023-07-25T04:29:12.194Z,13.72
2023-07-25T04:30:12.180Z,13.68
2023-07-25T04:31:12.144Z,13.66
2023-07-25T04:32:12.170Z,13.68
2023-07-25T04:33:12.145Z,13.68
2023-07-25T04:34:12.215Z,13.65
2023-07-25T04:35:12.093Z,13.66
2023-07-25T04:36:12.124Z,13.63
2023-07-25T04:37:12.114Z,13.65
2023-07-25T04:38:12.112Z,13.65
2023-07-25T04:39:12.101Z,13.62
2023-07-25T04:40:12.077Z,13.62
2023-07-25T04:41:12.146Z,13.61
2023-07-25T04:42:12.047Z,13.61
2023-07-25T04:43:11.990Z,13.55
2023-07-25T04:44:11.978Z,13.57
2023-07-25T04:45:11.979Z,13.59
2023-07-25T04:46:12.020Z,13.63
2023-07-25T04:47:11.939Z,13.65
2023-07-25T04:48:11.940Z,13.68
2023-07-25T04:49:11.914Z,13.71
2023-07-25T04:50:11.940Z,13.69
2023-07-25T04:51:12.157Z,13.73
2023-07-25T04:52:11.900Z,13.79
2023-07-25T04:53:11.901Z,13.81
2023-07-25T04:54:11.904Z,13.81
2023-07-25T04:55:11.937Z,13.86
2023-07-25T04:56:11.850Z,13.93
2023-07-25T04:57:11.845Z,13.94
2023-07-25T04:58:11.793Z,13.94
2023-07-25T04:59:11.783Z,13.98
2023-07-25T05:00:11.879Z,14.01
2023-07-25T05:01:11.804Z,14.02
2023-07-25T05:02:11.743Z,14.06
2023-07-25T05:03:11.966Z,14.06
2023-07-25T05:04:11.721Z,14.09
2023-07-25T05:05:11.728Z,14.09
2023-07-25T05:06:11.780Z,14.09
2023-07-25T05:07:11.683Z,14.08
2023-07-25T05:08:11.686Z,14.08
2023-07-25T05:09:11.695Z,14.06
2023-07-25T05:10:11.896Z,14.05
2023-07-25T05:11:11.700Z,14.09
2023-07-25T05:12:12.186Z,14.06
2023-07-25T05:13:11.796Z,14.09
2023-07-25T05:14:11.768Z,14.09
2023-07-25T05:15:11.589Z,14.13
2023-07-25T05:16:11.816Z,14.13
2023-07-25T05:17:11.716Z,14.17
2023-07-25T05:18:11.562Z,14.16
2023-07-25T05:19:11.573Z,14.17
2023-07-25T05:20:11.507Z,14.23
2023-07-25T05:21:11.511Z,14.26
2023-07-25T05:22:11.479Z,14.27
2023-07-25T05:23:11.889Z,14.36
2023-07-25T05:24:11.494Z,14.46
2023-07-25T05:25:11.473Z,14.63
2023-07-25T05:26:11.439Z,14.82
2023-07-25T05:27:11.419Z,15.00
2023-07-25T05:28:11.429Z,15.13
2023-07-25T05:29:11.426Z,15.28
2023-07-25T05:30:11.388Z,15.38
2023-07-25T05:31:11.374Z,15.48
2023-07-25T05:32:11.351Z,15.46
2023-07-25T05:33:11.367Z,15.37
2023-07-25T05:34:11.364Z,15.27
2023-07-25T05:35:11.299Z,15.15
2023-07-25T05:36:11.309Z,15.09
2023-07-25T05:37:11.288Z,15.01
2023-07-25T05:38:11.391Z,14.94
2023-07-25T05:39:11.249Z,14.93
2023-07-25T05:40:11.245Z,14.91
2023-07-25T05:41:11.227Z,14.87
2023-07-25T05:42:11.247Z,14.85
2023-07-25T05:43:11.218Z,14.83
2023-07-25T05:44:11.926Z,14.82
2023-07-25T05:45:11.167Z,14.72
2023-07-25T05:46:11.231Z,14.72
2023-07-25T05:47:11.231Z,14.63
2023-07-25T05:48:11.150Z,14.59
2023-07-25T05:49:11.122Z,14.54
2023-07-25T05:50:11.166Z,14.46
2023-07-25T05:51:11.141Z,14.39
2023-07-25T05:52:11.135Z,14.35
2023-07-25T05:53:11.072Z,14.24
2023-07-25T05:54:11.079Z,14.21
2023-07-25T05:55:11.052Z,14.16
2023-07-25T05:56:11.354Z,14.12
2023-07-25T05:57:11.025Z,14.09
2023-07-25T05:58:11.009Z,14.12
2023-07-25T05:59:11.151Z,14.12
2023-07-25T06:00:10.999Z,14.12
2023-07-25T06:01:11.111Z,14.16
2023-07-25T06:02:11.000Z,14.19
2023-07-25T06:03:11.015Z,14.23
2023-07-25T06:04:10.970Z,14.26
2023-07-25T06:05:11.121Z,14.30
2023-07-25T06:06:10.984Z,14.31
2023-07-25T06:07:10.884Z,14.35
2023-07-25T06:08:10.867Z,14.38
2023-07-25T06:09:10.904Z,14.41
2023-07-25T06:10:10.882Z,14.48
2023-07-25T06:11:10.884Z,14.53
2023-07-25T06:12:10.831Z,14.57
2023-07-25T06:13:10.876Z,14.61
2023-07-25T06:14:10.823Z,14.66
2023-07-25T06:15:10.848Z,14.67
2023-07-25T06:16:11.638Z,14.66
2023-07-25T06:17:10.772Z,14.71
2023-07-25T06:18:10.738Z,14.71
2023-07-25T06:19:10.794Z,14.74
2023-07-25T06:20:10.889Z,14.75
2023-07-25T06:21:10.695Z,14.75
2023-07-25T06:22:10.690Z,14.78
2023-07-25T06:23:10.681Z,14.80
2023-07-25T06:24:10.733Z,14.87
2023-07-25T06:25:10.659Z,14.87
2023-07-25T06:26:10.637Z,14.86
2023-07-25T06:27:10.648Z,14.93
2023-07-25T06:28:10.599Z,14.93
2023-07-25T06:29:10.636Z,14.95
2023-07-25T06:30:10.594Z,15.03
2023-07-25T06:31:10.589Z,15.04
2023-07-25T06:32:10.617Z,15.07
2023-07-25T06:33:10.601Z,15.11
2023-07-25T06:34:10.561Z,15.12
2023-07-25T06:35:10.505Z,15.11
2023-07-25T06:36:10.531Z,15.11
2023-07-25T06:37:10.485Z,15.05
2023-07-25T06:38:10.517Z,15.00
2023-07-25T06:39:10.459Z,14.93
2023-07-25T06:40:10.590Z,14.93
2023-07-25T06:41:10.425Z,14.93
2023-07-25T06:42:10.428Z,14.95
2023-07-25T06:43:10.426Z,14.95
2023-07-25T06:44:11.092Z,14.98
2023-07-25T06:45:10.381Z,15.00
2023-07-25T06:46:10.401Z,15.01
2023-07-25T06:47:10.420Z,14.98
2023-07-25T06:48:10.392Z,15.00
2023-07-25T06:49:10.336Z,15.05
2023-07-25T06:50:10.348Z,15.11
2023-07-25T06:51:10.313Z,15.15
2023-07-25T06:52:10.596Z,15.25
2023-07-25T06:53:10.282Z,15.31
2023-07-25T06:54:10.408Z,15.35
2023-07-25T06:55:10.287Z,15.48
2023-07-25T06:56:10.235Z,15.49
2023-07-25T06:57:10.265Z,15.64
2023-07-25T06:58:11.224Z,15.93
2023-07-25T06:59:10.213Z,16.42
2023-07-25T07:00:10.190Z,16.63
2023-07-25T07:01:10.291Z,17.20
2023-07-25T07:02:10.197Z,17.74
2023-07-25T07:03:10.261Z,18.23
2023-07-25T07:04:10.132Z,18.59
2023-07-25T07:05:28.125Z,18.86
2023-07-25T07:06:11.141Z,19.24
2023-07-25T07:07:10.097Z,19.58
2023-07-25T07:08:10.069Z,19.92
2023-07-25T07:09:10.076Z,20.10
2023-07-25T07:10:10.077Z,20.38
2023-07-25T07:11:10.083Z,20.60
2023-07-25T07:12:10.027Z,20.78
2023-07-25T07:13:10.034Z,21.06
2023-07-25T07:14:10.049Z,21.38
2023-07-25T07:15:10.025Z,21.55
2023-07-25T07:16:09.966Z,21.42
2023-07-25T07:17:09.960Z,21.48
2023-07-25T07:18:10.007Z,21.36
2023-07-25T07:19:09.951Z,21.30
2023-07-25T07:20:09.964Z,21.22
2023-07-25T07:21:09.913Z,21.34
2023-07-25T07:22:09.900Z,21.63
2023-07-25T07:23:09.900Z,21.85
2023-07-25T07:24:09.930Z,21.96
2023-07-25T07:25:09.916Z,22.14
2023-07-25T07:26:10.180Z,22.19
2023-07-25T07:27:09.857Z,22.15
2023-07-25T07:28:09.822Z,21.98
2023-07-25T07:29:09.854Z,21.18
2023-07-25T07:30:09.791Z,20.33
2023-07-25T07:31:09.809Z,19.62
2023-07-25T07:32:09.763Z,20.02
2023-07-25T07:33:09.768Z,20.33
2023-07-25T07:34:09.790Z,19.94
2023-07-25T07:35:10.060Z,19.67
2023-07-25T07:36:12.685Z,19.35
2023-07-25T07:37:12.584Z,18.96
2023-07-25T07:38:09.720Z,18.53
2023-07-25T07:39:09.716Z,18.05
2023-07-25T07:40:09.668Z,17.66
2023-07-25T07:41:09.653Z,17.33
2023-07-25T07:42:09.650Z,18.04
2023-07-25T07:43:09.693Z,18.76
2023-07-25T07:44:09.633Z,19.52
2023-07-25T07:45:09.599Z,20.20
2023-07-25T07:46:09.666Z,20.73
2023-07-25T07:47:09.575Z,21.11
2023-07-25T07:48:09.583Z,21.40
2023-07-25T07:49:09.570Z,21.73
2023-07-25T07:50:09.550Z,22.02
2023-07-25T07:51:09.514Z,22.31
2023-07-25T07:52:17.534Z,22.74
2023-07-25T07:53:10.625Z,22.97
2023-07-25T07:54:09.515Z,22.89
2023-07-25T07:55:09.492Z,22.97
2023-07-25T07:56:09.452Z,23.06
2023-07-25T07:57:09.483Z,23.03
2023-07-25T07:58:09.477Z,22.96
2023-07-25T07:59:09.420Z,22.45
2023-07-25T08:00:09.405Z,22.35
2023-07-25T08:01:09.392Z,21.59
2023-07-25T08:02:09.437Z,20.87
2023-07-25T08:03:09.402Z,20.76
2023-07-25T08:04:09.369Z,21.33
2023-07-25T08:05:09.354Z,21.70
2023-07-25T08:06:09.345Z,22.21
2023-07-25T08:07:09.403Z,22.74
2023-07-25T08:08:09.372Z,23.25
2023-07-25T08:09:09.311Z,22.66
2023-07-25T08:10:09.322Z,22.51
2023-07-25T08:11:09.320Z,22.64
2023-07-25T08:12:09.256Z,22.31
2023-07-25T08:13:09.243Z,21.42
2023-07-25T08:14:09.215Z,20.63
2023-07-25T08:15:09.223Z,19.97
2023-07-25T08:16:09.254Z,19.35
2023-07-25T08:17:09.191Z,18.83
2023-07-25T08:18:09.238Z,18.51
2023-07-25T08:19:09.171Z,18.16
2023-07-25T08:20:09.173Z,17.84
2023-07-25T08:21:09.171Z,17.58
2023-07-25T08:22:09.124Z,17.39
2023-07-25T08:23:09.108Z,17.21
2023-07-25T08:24:09.088Z,17.09
2023-07-25T08:25:09.124Z,17.55
2023-07-25T08:26:09.067Z,18.35
2023-07-25T08:27:09.059Z,19.15
2023-07-25T08:28:09.056Z,19.94
2023-07-25T08:29:09.042Z,20.75
2023-07-25T08:30:09.070Z,21.48
2023-07-25T08:31:09.031Z,21.51
2023-07-25T08:32:09.045Z,21.59
2023-07-25T08:33:09.060Z,21.98
2023-07-25T08:34:09.003Z,22.02
2023-07-25T08:35:09.011Z,21.91
2023-07-25T08:36:08.951Z,22.12
2023-07-25T08:37:09.036Z,22.42
2023-07-25T08:38:08.917Z,22.05
2023-07-25T08:39:08.935Z,21.46
2023-07-25T08:40:08.893Z,20.94
2023-07-25T08:41:08.897Z,20.61
2023-07-25T08:42:08.860Z,20.48
2023-07-25T08:43:08.864Z,20.22
2023-07-25T08:44:08.873Z,20.04
2023-07-25T08:45:08.821Z,20.07
2023-07-25T08:46:08.868Z,20.12
2023-07-25T08:47:08.801Z,20.68
2023-07-25T08:48:08.858Z,21.09
2023-07-25T08:49:08.802Z,21.52
2023-07-25T08:50:08.773Z,21.81
2023-07-25T08:51:08.755Z,21.66
2023-07-25T08:52:08.730Z,21.59
2023-07-25T08:53:08.756Z,21.85
2023-07-25T08:54:08.732Z,22.17
2023-07-25T08:55:08.825Z,22.30
2023-07-25T08:56:08.706Z,22.38
2023-07-25T08:57:08.675Z,22.49
2023-07-25T08:58:08.684Z,22.19
2023-07-25T08:59:08.669Z,21.70
2023-07-25T09:00:08.633Z,21.12
2023-07-25T09:01:08.644Z,20.69
2023-07-25T09:02:08.783Z,20.71
2023-07-25T09:03:08.778Z,20.42
2023-07-25T09:04:08.588Z,20.15
2023-07-25T09:05:08.580Z,19.89
2023-07-25T09:06:08.576Z,19.62
2023-07-25T09:07:08.599Z,19.34
2023-07-25T09:08:08.549Z,19.15
2023-07-25T09:09:08.525Z,19.02
2023-07-25T09:10:08.514Z,18.94
2023-07-25T09:11:08.517Z,18.86
2023-07-25T09:12:08.506Z,18.90
2023-07-25T09:13:08.466Z,19.23
2023-07-25T09:14:08.463Z,19.32
2023-07-25T09:15:08.482Z,19.60
2023-07-25T09:16:08.523Z,19.86
2023-07-25T09:17:08.503Z,20.17
2023-07-25T09:18:08.462Z,20.50
2023-07-25T09:19:08.388Z,20.85
2023-07-25T09:20:08.394Z,20.97
2023-07-25T09:21:08.413Z,21.12
2023-07-25T09:22:08.391Z,21.19
2023-07-25T09:23:08.346Z,21.24
2023-07-25T09:24:08.326Z,21.18
2023-07-25T09:25:08.350Z,21.40
2023-07-25T09:26:08.339Z,21.77
2023-07-25T09:27:08.295Z,21.71
2023-07-25T09:28:08.278Z,21.68
2023-07-25T09:29:08.265Z,21.67
2023-07-25T09:30:08.389Z,21.37
2023-07-25T09:31:08.276Z,21.42
2023-07-25T09:32:08.272Z,21.66
2023-07-25T09:33:08.215Z,21.70
2023-07-25T09:34:08.196Z,21.73
2023-07-25T09:35:08.221Z,21.82
2023-07-25T09:36:08.168Z,21.93
2023-07-25T09:37:08.167Z,21.98
2023-07-25T09:38:08.181Z,21.66
2023-07-25T09:39:08.921Z,21.42
2023-07-25T09:40:08.145Z,21.43
2023-07-25T09:41:08.147Z,21.30
2023-07-25T09:42:08.118Z,21.33
2023-07-25T09:43:08.114Z,21.27
2023-07-25T09:44:08.096Z,21.26
2023-07-25T09:45:08.100Z,21.15
2023-07-25T09:46:08.081Z,21.21
2023-07-25T09:47:08.030Z,21.12
2023-07-25T09:48:08.079Z,21.01
2023-07-25T09:49:09.090Z,20.88
2023-07-25T09:50:08.350Z,20.71
2023-07-25T09:51:07.978Z,20.50
2023-07-25T09:52:07.987Z,20.31
2023-07-25T09:53:08.042Z,20.23
2023-07-25T09:54:08.015Z,20.26
2023-07-25T09:55:08.006Z,20.20
2023-07-25T09:56:07.917Z,20.02
2023-07-25T09:57:07.985Z,19.85
2023-07-25T09:58:07.975Z,19.72
2023-07-25T09:59:07.938Z,19.72
2023-07-25T10:00:07.861Z,19.72
2023-07-25T10:01:07.910Z,19.70
2023-07-25T10:02:09.884Z,19.57
2023-07-25T10:03:07.898Z,19.61
2023-07-25T10:04:07.800Z,19.65
2023-07-25T10:05:07.804Z,19.82
2023-07-25T10:06:07.801Z,19.83
2023-07-25T10:07:07.782Z,19.86
2023-07-25T10:08:07.790Z,19.85
2023-07-25T10:09:07.768Z,19.82
2023-07-25T10:10:07.735Z,19.80
2023-07-25T10:11:07.713Z,19.82
2023-07-25T10:12:07.770Z,19.85
2023-07-25T10:13:08.694Z,19.80
2023-07-25T10:14:09.554Z,19.70
2023-07-25T10:15:07.669Z,19.61
2023-07-25T10:16:07.708Z,19.62
2023-07-25T10:17:07.683Z,19.68
2023-07-25T10:18:07.645Z,19.68
2023-07-25T10:19:07.640Z,19.58
2023-07-25T10:20:09.862Z,19.60
2023-07-25T10:21:07.613Z,19.70
2023-07-25T10:22:07.604Z,19.72
2023-07-25T10:23:07.572Z,19.75
2023-07-25T10:24:07.537Z,19.76
2023-07-25T10:25:07.539Z,19.71
2023-07-25T10:26:09.572Z,19.72
2023-07-25T10:27:07.513Z,19.72
2023-07-25T10:28:07.505Z,19.75
2023-07-25T10:29:07.515Z,19.80
2023-07-25T10:30:07.484Z,19.85
2023-07-25T10:31:07.526Z,19.83
2023-07-25T10:32:09.557Z,19.80
2023-07-25T10:33:07.478Z,19.80
2023-07-25T10:34:07.422Z,19.85
2023-07-25T10:35:07.441Z,19.87
2023-07-25T10:36:07.431Z,19.92
2023-07-25T10:37:07.395Z,20.01
2023-07-25T10:38:09.653Z,20.08
2023-07-25T10:39:07.358Z,20.12
2023-07-25T10:40:07.378Z,20.13
2023-07-25T10:41:07.338Z,20.08
2023-07-25T10:42:07.323Z,20.00
2023-07-25T10:43:08.088Z,19.92
2023-07-25T10:44:07.290Z,19.92
2023-07-25T10:45:07.314Z,19.86
2023-07-25T10:46:07.262Z,19.72
2023-07-25T10:47:07.313Z,19.75
2023-07-25T10:48:07.368Z,19.68
2023-07-25T10:49:07.266Z,19.65
2023-07-25T10:50:07.247Z,19.60
2023-07-25T10:51:07.219Z,19.60
2023-07-25T10:52:07.200Z,19.55
2023-07-25T10:53:07.177Z,19.45
2023-07-25T10:54:07.198Z,19.45
2023-07-25T10:55:07.159Z,19.40
2023-07-25T10:56:09.704Z,19.34
2023-07-25T10:57:07.120Z,19.30
2023-07-25T10:58:07.125Z,19.27
2023-07-25T10:59:07.149Z,19.23
2023-07-25T11:00:07.106Z,19.23
2023-07-25T11:01:07.181Z,19.24
2023-07-25T11:02:07.072Z,19.23
2023-07-25T11:03:07.084Z,19.28
2023-07-25T11:04:07.115Z,19.28
2023-07-25T11:05:07.178Z,19.27
2023-07-25T11:06:07.056Z,19.27
2023-07-25T11:07:07.124Z,19.27
2023-07-25T11:08:07.051Z,19.35
2023-07-25T11:09:06.990Z,19.45
2023-07-25T11:10:06.965Z,19.40
2023-07-25T11:11:07.027Z,19.38
2023-07-25T11:12:06.930Z,19.38
2023-07-25T11:13:07.082Z,19.35
2023-07-25T11:14:06.998Z,19.32
2023-07-25T11:15:06.883Z,19.28
2023-07-25T11:16:06.906Z,19.23
2023-07-25T11:17:06.893Z,19.21
2023-07-25T11:18:06.896Z,19.10
2023-07-25T11:19:06.879Z,19.07
2023-07-25T11:20:06.866Z,19.02
2023-07-25T11:21:06.810Z,18.99
2023-07-25T11:22:06.870Z,18.91
2023-07-25T11:23:07.031Z,18.86
2023-07-25T11:24:06.811Z,18.82
2023-07-25T11:25:06.775Z,18.84
2023-07-25T11:26:06.832Z,18.78
2023-07-25T11:27:06.780Z,18.79
2023-07-25T11:28:06.912Z,18.78
2023-07-25T11:29:06.709Z,18.69
2023-07-25T11:30:06.717Z,18.69
2023-07-25T11:31:06.740Z,18.66
2023-07-25T11:32:06.715Z,18.69
2023-07-25T11:33:06.669Z,18.69
2023-07-25T11:34:06.655Z,18.75
2023-07-25T11:35:06.636Z,18.84
2023-07-25T11:36:06.670Z,18.96
2023-07-25T11:37:06.686Z,19.15
2023-07-25T11:38:06.624Z,19.28
2023-07-25T11:39:06.592Z,19.32
2023-07-25T11:40:06.998Z,19.35
2023-07-25T11:41:06.630Z,19.47
2023-07-25T11:42:06.654Z,19.60
2023-07-25T11:43:06.593Z,19.67
2023-07-25T11:44:06.544Z,19.76
2023-07-25T11:45:06.613Z,19.82
2023-07-25T11:46:06.574Z,19.80
2023-07-25T11:47:06.476Z,19.80
2023-07-25T11:48:06.552Z,19.80
2023-07-25T11:49:06.471Z,19.78
2023-07-25T11:50:23.061Z,19.76
2023-07-25T11:51:07.442Z,19.83
2023-07-25T11:52:06.500Z,19.89
2023-07-25T11:53:06.563Z,19.89
2023-07-25T11:54:06.427Z,19.97
2023-07-25T11:55:07.140Z,20.02
2023-07-25T11:56:07.239Z,20.10
2023-07-25T11:57:06.516Z,20.15
2023-07-25T11:58:06.356Z,20.20
2023-07-25T11:59:06.370Z,20.35
2023-07-25T12:00:06.376Z,20.56
2023-07-25T12:01:06.390Z,20.90
2023-07-25T12:02:06.340Z,21.31
2023-07-25T12:03:06.309Z,21.59
2023-07-25T12:04:06.363Z,21.85
2023-07-25T12:05:06.251Z,22.06
2023-07-25T12:06:06.244Z,22.17
2023-07-25T12:07:06.241Z,22.23
2023-07-25T12:08:06.395Z,22.21
2023-07-25T12:09:06.277Z,22.12
2023-07-25T12:10:06.205Z,22.05
2023-07-25T12:11:06.253Z,21.90
2023-07-25T12:12:06.177Z,21.67
2023-07-25T12:13:06.185Z,21.51
2023-07-25T12:14:06.216Z,21.24
2023-07-25T12:15:06.236Z,20.97
2023-07-25T12:16:06.201Z,20.73
2023-07-25T12:17:06.127Z,20.44
2023-07-25T12:18:06.151Z,20.25
2023-07-25T12:19:06.145Z,20.08
2023-07-25T12:20:06.066Z,19.98
2023-07-25T12:21:06.983Z,19.90
2023-07-25T12:22:06.060Z,19.79
2023-07-25T12:23:06.124Z,19.71
2023-07-25T12:24:06.020Z,19.61
2023-07-25T12:25:06.083Z,19.50
2023-07-25T12:26:06.000Z,19.35
2023-07-25T12:27:06.002Z,19.24
2023-07-25T12:28:05.959Z,19.10
2023-07-25T12:29:05.935Z,18.97
2023-07-25T12:30:06.133Z,18.82
2023-07-25T12:31:06.044Z,18.57
2023-07-25T12:32:05.946Z,18.39
2023-07-25T12:33:05.973Z,18.23
2023-07-25T12:34:05.887Z,18.07
2023-07-25T12:35:05.867Z,17.96
2023-07-25T12:36:05.907Z,17.77
2023-07-25T12:37:05.885Z,17.65
2023-07-25T12:38:05.830Z,17.58
2023-07-25T12:39:05.806Z,17.46
2023-07-25T12:40:05.817Z,17.43
2023-07-25T12:41:05.918Z,17.33
2023-07-25T12:42:05.820Z,17.24
2023-07-25T12:43:05.757Z,17.17
2023-07-25T12:44:06.373Z,17.05
2023-07-25T12:45:06.476Z,17.02
2023-07-25T12:46:06.097Z,16.92
2023-07-25T12:47:05.844Z,16.87
2023-07-25T12:48:05.813Z,16.81
2023-07-25T12:49:05.692Z,16.80
2023-07-25T12:50:05.708Z,16.78
2023-07-25T12:51:05.691Z,16.72
2023-07-25T12:52:05.749Z,16.65